Meteo Giornale » Osservazioni meteo Gran Bretagna » Leeming

ore: 20:12 - Osservazioni Meteo Leeming
Lat. 54° 18' N Lon. 1° 32' W Alt. 40 metri s.l.m.

molto_nuvoloso Europe/London

11 °C

Molto Nuvoloso

Temp. 24 Ore

9 °C

14 °C

Sud-Ovest

29.6 Km/h

Dew point 8 °C

Umidità 81 %

Visibilità  10 Km

Il sole sorge alle ore 05:42

Il sole tramonta alle ore 20:26

Data e Ora Cielo e Fenomeni T °C DP °C Um. % Pres. hPa Vis. km Vento km/h
Oggi h: 20:12 molto_nuvoloso Molto Nuvoloso 11 8 81 1007 10 SO 29.6
Oggi h: 19:39 coperto_pioggia Pioggia Debole 11 8 81 1008 10 S/SO 22.2
Oggi h: 18:50 coperto_pioggia Pioggia Debole 11 7 76 1009 10 SO 24
Oggi h: 18:16 nuvoloso Nuvoloso 11 7 76 1009 10 S/SO 35.2
Oggi h: 17:50 coperto_pioggia Pioggia Debole 11 8 81 1009 10 SO 29.6
Oggi h: 16:50 molto_nuvoloso Molto Nuvoloso 13 5 58 1010 10 SO 29.6
Oggi h: 15:50 molto_nuvoloso Molto Nuvoloso 13 3 50 1010 10 SO 38.8
Oggi h: 14:50 molto_nuvoloso Molto Nuvoloso 14 3 47 1011 10 SO 33.3
Oggi h: 13:50 molto_nuvoloso Molto Nuvoloso 12 3 54 1011 10 O/SO 37
Oggi h: 12:50 molto_nuvoloso Molto Nuvoloso 12 2 50 1011 10 O/SO 35.2
Oggi h: 11:50 molto_nuvoloso Molto Nuvoloso 13 4 54 1011 10 O/SO 31.5
Oggi h: 10:50 molto_nuvoloso Molto Nuvoloso 11 4 61 1011 10 O/SO 27.8
Oggi h: 09:50 molto_nuvoloso Molto Nuvoloso 11 5 66 1010 10 O 29.6
Oggi h: 08:50 nuvoloso Nuvoloso 11 5 66 1010 10 O/SO 27.8
Oggi h: 07:50 molto_nuvoloso Molto Nuvoloso 10 4 66 1010 10 O/SO 22.2
Oggi h: 06:50 molto_nuvoloso Molto Nuvoloso 10 5 71 1009 10 O/SO 16.7
Oggi h: 05:50 molto_nuvoloso Molto Nuvoloso 9 5 75 1009 10 O/SO 18.5
Oggi h: 03:50 nuvoloso Nuvoloso 9 6 81 1008 10 O/SO 24
Oggi h: 02:50 coperto_pioggia Pioggia Debole 9 6 81 1008 10 O 20.3
Oggi h: 00:50 nuvoloso Nuvoloso 10 6 76 1007 10 O/SO 20.3
Ieri h: 23:50 nuvoloso Nuvoloso 10 6 76 1007 10 SO 20.3
Ieri h: 22:50 sereno Sereno 10 5 71 1007 10 SO 22.2
Ieri h: 21:50 poco_nuvoloso Poco Nuvoloso 9 5 75 1007 10 O/SO 20.3
Ieri h: 20:50 poco_nuvoloso Poco Nuvoloso 9 4 70 1007 10 O/SO 7.4